Time;durP1;ratioP1;P1;durP2;ratioP2;P2;SDS_P1;SDS_P2;PMS_P1;PMS_P2;Temp;Humidity;BMP_temperature;BMP_pressure;BME280_temperature;BME280_humidity;BME280_pressure;Samples;Min_cycle;Max_cycle;Signal;HPM_P1;HPM_P2
2022/07/16 00:02:26;;;;;;;4.77;3.00;;;;;;;;;;5045839;28;20476;-80
2022/07/16 00:04:53;;;;;;;4.60;2.67;;;;;;;;;;5046201;28;20270;-82
2022/07/16 00:07:20;;;;;;;4.73;2.70;;;;;;;;;;5045282;28;20202;-81
2022/07/16 00:09:47;;;;;;;7.77;3.20;;;;;;;;;;5047351;28;20290;-80
2022/07/16 00:12:15;;;;;;;5.10;2.87;;;;;;;;;;5044587;28;20257;-81
2022/07/16 00:14:42;;;;;;;7.27;3.10;;;;;;;;;;5044830;28;20227;-81
2022/07/16 00:17:09;;;;;;;6.57;2.90;;;;;;;;;;5043598;28;20210;-81
2022/07/16 00:19:37;;;;;;;4.33;2.70;;;;;;;;;;5046850;28;20207;-80
2022/07/16 00:22:04;;;;;;;6.20;3.20;;;;;;;;;;5044253;28;20290;-81
2022/07/16 00:24:31;;;;;;;5.43;2.70;;;;;;;;;;5045051;28;20231;-81
2022/07/16 00:26:58;;;;;;;5.20;2.80;;;;;;;;;;5047695;28;20293;-80
2022/07/16 00:29:25;;;;;;;7.00;3.37;;;;;;;;;;5047022;28;20280;-81
2022/07/16 00:31:54;;;;;;;5.43;3.00;;;;;;;;;;5050224;28;20748;-80
2022/07/16 00:34:22;;;;;;;7.10;3.10;;;;;;;;;;5047399;28;20591;-81
2022/07/16 00:36:51;;;;;;;7.27;2.83;;;;;;;;;;5051516;28;20206;-80
2022/07/16 00:39:19;;;;;;;7.90;3.10;;;;;;;;;;5046936;28;20207;-81
2022/07/16 00:41:47;;;;;;;6.93;2.70;;;;;;;;;;5046975;28;20263;-80
2022/07/16 00:44:15;;;;;;;5.43;3.13;;;;;;;;;;5045644;28;20226;-81
2022/07/16 00:46:43;;;;;;;4.83;2.80;;;;;;;;;;5045274;28;20203;-80
2022/07/16 00:49:11;;;;;;;4.43;2.87;;;;;;;;;;5049151;28;20245;-80
2022/07/16 00:51:38;;;;;;;8.47;3.43;;;;;;;;;;5049976;28;20269;-81
2022/07/16 00:54:07;;;;;;;5.53;3.10;;;;;;;;;;5044551;28;20310;-81
2022/07/16 00:56:34;;;;;;;10.00;3.50;;;;;;;;;;5043951;28;20286;-81
2022/07/16 00:59:02;;;;;;;5.53;3.03;;;;;;;;;;5042335;28;20215;-81
2022/07/16 01:01:29;;;;;;;6.87;3.53;;;;;;;;;;5042164;28;20689;-81
2022/07/16 01:03:56;;;;;;;4.50;2.80;;;;;;;;;;5039957;28;20231;-81
2022/07/16 01:06:23;;;;;;;5.20;2.70;;;;;;;;;;5040233;28;20247;-81
2022/07/16 01:08:51;;;;;;;4.43;2.80;;;;;;;;;;5043561;28;20223;-82
2022/07/16 01:11:20;;;;;;;4.97;3.10;;;;;;;;;;5041250;28;20218;-83
2022/07/16 01:13:49;;;;;;;5.27;2.70;;;;;;;;;;5044949;28;20278;-82
2022/07/16 01:16:16;;;;;;;5.03;3.23;;;;;;;;;;5042475;28;20199;-82
2022/07/16 01:18:44;;;;;;;4.97;3.40;;;;;;;;;;5046155;28;20264;-82
2022/07/16 01:21:12;;;;;;;8.13;3.37;;;;;;;;;;5038952;28;20286;-82
2022/07/16 01:23:42;;;;;;;6.30;2.90;;;;;;;;;;5044245;28;20254;-82
2022/07/16 01:26:09;;;;;;;8.63;3.00;;;;;;;;;;5043753;28;20222;-81
2022/07/16 01:28:36;;;;;;;4.17;2.83;;;;;;;;;;5043265;28;20215;-80
2022/07/16 01:31:04;;;;;;;4.80;3.00;;;;;;;;;;5044020;28;20203;-81
2022/07/16 01:33:31;;;;;;;4.50;3.03;;;;;;;;;;5043585;28;20233;-80
2022/07/16 01:36:00;;;;;;;8.00;3.33;;;;;;;;;;5044044;28;20615;-81
2022/07/16 01:38:27;;;;;;;5.03;3.00;;;;;;;;;;5043805;28;20652;-81
2022/07/16 01:40:56;;;;;;;6.17;3.20;;;;;;;;;;5045052;28;20313;-81
2022/07/16 01:43:24;;;;;;;5.63;2.80;;;;;;;;;;5040954;28;20269;-80
2022/07/16 01:45:52;;;;;;;4.07;2.77;;;;;;;;;;5044796;28;20782;-81
2022/07/16 01:48:19;;;;;;;3.93;2.70;;;;;;;;;;5039973;28;20214;-81
2022/07/16 01:50:47;;;;;;;11.33;2.80;;;;;;;;;;5044759;28;20226;-81
2022/07/16 01:53:14;;;;;;;4.17;3.13;;;;;;;;;;5039482;28;20242;-81
2022/07/16 01:55:42;;;;;;;8.53;3.00;;;;;;;;;;5039879;28;20285;-84
2022/07/16 01:58:12;;;;;;;4.10;2.87;;;;;;;;;;5040114;28;20271;-82
2022/07/16 02:00:40;;;;;;;6.03;3.37;;;;;;;;;;5041171;28;20592;-82
2022/07/16 02:03:07;;;;;;;5.90;3.27;;;;;;;;;;5036888;28;20233;-82
2022/07/16 02:05:34;;;;;;;6.13;3.30;;;;;;;;;;5037981;28;20322;-81
2022/07/16 02:08:02;;;;;;;5.00;3.13;;;;;;;;;;5035882;28;20286;-82
2022/07/16 02:10:30;;;;;;;4.83;2.93;;;;;;;;;;5040682;28;20213;-82
2022/07/16 02:12:57;;;;;;;6.60;3.47;;;;;;;;;;5041831;28;20234;-82
2022/07/16 02:15:26;;;;;;;3.23;2.73;;;;;;;;;;5041220;28;20289;-82
2022/07/16 02:17:53;;;;;;;4.40;3.27;;;;;;;;;;5046948;28;20205;-80
2022/07/16 02:20:20;;;;;;;5.90;3.07;;;;;;;;;;5044222;28;20253;-83
2022/07/16 02:22:47;;;;;;;6.13;2.97;;;;;;;;;;5042468;28;20306;-80
2022/07/16 02:25:15;;;;;;;4.70;3.00;;;;;;;;;;5036742;28;20227;-81
2022/07/16 02:30:23;;;;;;;5.77;2.90;;;;;;;;;;5042952;28;20205;-81
2022/07/16 02:32:51;;;;;;;5.67;2.80;;;;;;;;;;5043897;28;20743;-80
2022/07/16 02:35:18;;;;;;;6.63;3.23;;;;;;;;;;5046509;28;20261;-80
2022/07/16 02:37:46;;;;;;;6.60;3.27;;;;;;;;;;5048147;28;20270;-80
2022/07/16 02:40:13;;;;;;;6.07;3.00;;;;;;;;;;5050894;28;20294;-82
2022/07/16 02:42:40;;;;;;;4.57;2.93;;;;;;;;;;5051091;28;20229;-82
2022/07/16 02:45:09;;;;;;;7.23;3.10;;;;;;;;;;5051651;28;20254;-81
2022/07/16 02:47:36;;;;;;;6.03;3.30;;;;;;;;;;5047630;28;20241;-81
2022/07/16 02:50:06;;;;;;;4.37;3.00;;;;;;;;;;5052049;28;20242;-82
2022/07/16 02:52:33;;;;;;;6.20;3.50;;;;;;;;;;5051592;28;20223;-82
2022/07/16 02:55:00;;;;;;;4.60;3.10;;;;;;;;;;5049234;28;20757;-82
2022/07/16 02:57:28;;;;;;;5.13;3.20;;;;;;;;;;5047508;28;20675;-82
2022/07/16 02:59:55;;;;;;;6.70;3.67;;;;;;;;;;5050794;28;20788;-82
2022/07/16 03:02:24;;;;;;;4.37;3.00;;;;;;;;;;5049234;28;20223;-81
2022/07/16 03:04:51;;;;;;;4.93;3.13;;;;;;;;;;5046848;28;20286;-81
2022/07/16 03:07:20;;;;;;;6.00;3.07;;;;;;;;;;5049728;28;20869;-81
2022/07/16 03:09:47;;;;;;;5.90;3.30;;;;;;;;;;5047933;28;20282;-81
2022/07/16 03:12:14;;;;;;;6.07;3.40;;;;;;;;;;5049965;28;20203;-80
2022/07/16 03:14:41;;;;;;;6.67;3.30;;;;;;;;;;5046771;28;20213;-81
2022/07/16 03:17:09;;;;;;;7.97;3.10;;;;;;;;;;5049709;28;20203;-81
2022/07/16 03:19:36;;;;;;;7.23;3.50;;;;;;;;;;5049491;28;20198;-81
2022/07/16 03:22:03;;;;;;;7.63;3.53;;;;;;;;;;5047862;28;20773;-80
2022/07/16 03:24:32;;;;;;;3.63;2.87;;;;;;;;;;5046314;28;20286;-81
2022/07/16 03:26:59;;;;;;;4.17;3.03;;;;;;;;;;5048301;28;20237;-80
2022/07/16 03:29:27;;;;;;;6.40;3.10;;;;;;;;;;5046746;28;20262;-80
2022/07/16 03:31:54;;;;;;;4.20;2.80;;;;;;;;;;5043503;28;20671;-80
2022/07/16 03:34:21;;;;;;;3.60;2.70;;;;;;;;;;5045255;28;20253;-80
2022/07/16 03:36:49;;;;;;;7.63;2.93;;;;;;;;;;5047315;28;20199;-80
2022/07/16 03:39:16;;;;;;;3.67;3.00;;;;;;;;;;5046762;28;20257;-80
2022/07/16 03:41:44;;;;;;;7.43;3.10;;;;;;;;;;5047986;28;20598;-80
2022/07/16 03:44:12;;;;;;;6.03;3.30;;;;;;;;;;5046228;28;20226;-80
2022/07/16 03:46:40;;;;;;;7.90;3.10;;;;;;;;;;5044506;28;20219;-81
2022/07/16 03:49:07;;;;;;;5.73;3.10;;;;;;;;;;5045145;28;20687;-81
2022/07/16 03:51:34;;;;;;;6.90;3.27;;;;;;;;;;5046804;28;20751;-80
2022/07/16 03:54:02;;;;;;;3.43;2.97;;;;;;;;;;5046550;28;20338;-80
2022/07/16 03:56:29;;;;;;;4.87;3.33;;;;;;;;;;5047022;28;20659;-81
2022/07/16 03:58:57;;;;;;;6.10;3.23;;;;;;;;;;5047078;28;20246;-81
2022/07/16 04:01:25;;;;;;;5.73;3.20;;;;;;;;;;5046029;28;20203;-80
2022/07/16 04:03:52;;;;;;;3.90;3.07;;;;;;;;;;5064492;22;20228;-81
2022/07/16 04:06:20;;;;;;;4.57;2.90;;;;;;;;;;5041798;28;20641;-81
2022/07/16 04:08:47;;;;;;;4.43;3.00;;;;;;;;;;5043005;28;20204;-81
2022/07/16 04:11:15;;;;;;;7.97;3.10;;;;;;;;;;5036138;28;20307;-81
2022/07/16 04:13:42;;;;;;;6.60;3.07;;;;;;;;;;5044359;28;20231;-81
2022/07/16 04:16:12;;;;;;;4.10;2.57;;;;;;;;;;5041119;28;20258;-81
2022/07/16 04:18:40;;;;;;;3.70;2.27;;;;;;;;;;5040016;28;20223;-81
2022/07/16 04:21:09;;;;;;;4.17;2.33;;;;;;;;;;5041014;28;20628;-82
2022/07/16 04:23:36;;;;;;;4.70;2.50;;;;;;;;;;5040325;28;20257;-81
2022/07/16 04:26:04;;;;;;;4.43;2.30;;;;;;;;;;5040911;28;20775;-81
2022/07/16 04:28:31;;;;;;;4.53;2.53;;;;;;;;;;5037081;28;20682;-81
2022/07/16 04:30:59;;;;;;;4.77;2.40;;;;;;;;;;5039747;28;20200;-81
2022/07/16 04:33:31;;;;;;;5.33;2.43;;;;;;;;;;5039412;28;20229;-81
2022/07/16 04:35:58;;;;;;;4.37;2.10;;;;;;;;;;5036387;28;20211;-81
2022/07/16 04:38:25;;;;;;;2.50;2.07;;;;;;;;;;5041194;28;20317;-82
2022/07/16 04:40:53;;;;;;;4.00;2.03;;;;;;;;;;5044219;28;20294;-81
2022/07/16 04:43:20;;;;;;;3.03;1.90;;;;;;;;;;5040808;28;20223;-82
2022/07/16 04:45:47;;;;;;;3.80;1.80;;;;;;;;;;5044042;28;20258;-82
2022/07/16 04:48:15;;;;;;;3.43;1.97;;;;;;;;;;5044347;28;20303;-81
2022/07/16 04:50:46;;;;;;;3.00;2.00;;;;;;;;;;5051097;28;20186;-82
2022/07/16 04:53:14;;;;;;;5.97;2.10;;;;;;;;;;5063034;28;20211;-82
2022/07/16 04:55:41;;;;;;;5.57;2.23;;;;;;;;;;5061545;28;20254;-82
2022/07/16 04:58:10;;;;;;;5.53;2.10;;;;;;;;;;5041824;28;20270;-81
2022/07/16 05:00:37;;;;;;;8.43;2.37;;;;;;;;;;5036967;28;20204;-81
2022/07/16 05:03:06;;;;;;;3.80;2.60;;;;;;;;;;5036402;28;20232;-81
2022/07/16 05:05:35;;;;;;;3.73;2.27;;;;;;;;;;5039402;28;20225;-81
2022/07/16 05:08:09;;;;;;;5.07;2.50;;;;;;;;;;5036654;28;20287;-81
2022/07/16 05:10:38;;;;;;;5.30;3.43;;;;;;;;;;5039412;28;20285;-81
2022/07/16 05:13:06;;;;;;;4.67;2.47;;;;;;;;;;5038349;28;20230;-81
2022/07/16 05:15:33;;;;;;;4.00;2.83;;;;;;;;;;5040395;28;20266;-81
2022/07/16 05:18:01;;;;;;;3.27;2.40;;;;;;;;;;5042159;28;20199;-82
2022/07/16 05:20:28;;;;;;;3.90;2.50;;;;;;;;;;5037301;28;20203;-80
2022/07/16 05:22:55;;;;;;;5.53;2.47;;;;;;;;;;5040970;28;20285;-81
2022/07/16 05:25:28;;;;;;;2.90;2.50;;;;;;;;;;5039204;28;20202;-81
2022/07/16 05:27:55;;;;;;;5.30;2.70;;;;;;;;;;5040116;28;20277;-81
2022/07/16 05:30:23;;;;;;;8.20;2.80;;;;;;;;;;5040840;28;20206;-81
2022/07/16 05:32:53;;;;;;;6.77;2.50;;;;;;;;;;5039890;28;20215;-81
2022/07/16 05:35:20;;;;;;;3.70;2.73;;;;;;;;;;5041133;28;20200;-81
2022/07/16 05:37:47;;;;;;;4.10;2.57;;;;;;;;;;5041872;28;20204;-81
2022/07/16 05:40:15;;;;;;;5.00;2.67;;;;;;;;;;5042073;28;20294;-81
2022/07/16 05:42:46;;;;;;;4.83;2.57;;;;;;;;;;5036178;28;20255;-81
2022/07/16 05:45:13;;;;;;;4.63;2.60;;;;;;;;;;5039404;28;20674;-81
2022/07/16 05:47:41;;;;;;;6.83;2.40;;;;;;;;;;5039087;28;20254;-81
2022/07/16 05:50:17;;;;;;;3.43;2.50;;;;;;;;;;5040801;28;20267;-81
2022/07/16 05:52:46;;;;;;;3.73;2.50;;;;;;;;;;5039559;28;20322;-81
2022/07/16 05:55:14;;;;;;;6.57;3.00;;;;;;;;;;5039484;28;20320;-82
2022/07/16 05:57:41;;;;;;;5.03;2.87;;;;;;;;;;5041399;28;20334;-82
2022/07/16 06:00:11;;;;;;;4.97;2.83;;;;;;;;;;5042887;28;21441;-81
2022/07/16 06:02:40;;;;;;;5.57;2.80;;;;;;;;;;5045047;28;20230;-81
2022/07/16 06:05:08;;;;;;;6.40;2.77;;;;;;;;;;5047500;28;20617;-80
2022/07/16 06:07:43;;;;;;;4.80;2.60;;;;;;;;;;5044895;28;20219;-81
2022/07/16 06:10:11;;;;;;;4.47;2.60;;;;;;;;;;5043505;28;20304;-80
2022/07/16 06:12:39;;;;;;;9.33;2.70;;;;;;;;;;5047443;28;20246;-81
2022/07/16 06:15:07;;;;;;;6.00;2.80;;;;;;;;;;5045564;28;20213;-81
2022/07/16 06:17:39;;;;;;;8.60;3.03;;;;;;;;;;5041006;28;20207;-81
2022/07/16 06:20:09;;;;;;;5.30;2.43;;;;;;;;;;5044507;28;20198;-81
2022/07/16 06:22:36;;;;;;;5.43;2.47;;;;;;;;;;5045651;28;20242;-81
2022/07/16 06:25:03;;;;;;;4.20;2.37;;;;;;;;;;5039714;28;20211;-82
2022/07/16 06:27:31;;;;;;;6.37;2.60;;;;;;;;;;5046727;28;20251;-81
2022/07/16 06:30:00;;;;;;;5.43;2.30;;;;;;;;;;5042963;28;20253;-81
2022/07/16 06:32:27;;;;;;;2.97;2.00;;;;;;;;;;5046963;28;20698;-81
2022/07/16 06:35:00;;;;;;;5.10;2.43;;;;;;;;;;5041591;28;20199;-81
2022/07/16 06:37:29;;;;;;;4.17;2.27;;;;;;;;;;5044703;28;20209;-81
2022/07/16 06:39:59;;;;;;;5.57;2.30;;;;;;;;;;5046395;28;20226;-81
2022/07/16 06:42:28;;;;;;;4.97;2.37;;;;;;;;;;5042300;28;20203;-81
2022/07/16 06:44:55;;;;;;;3.57;2.10;;;;;;;;;;5041267;28;20203;-81
2022/07/16 06:47:24;;;;;;;5.80;2.40;;;;;;;;;;5043171;28;20618;-81
2022/07/16 06:49:54;;;;;;;5.07;2.53;;;;;;;;;;5040933;28;20208;-81
2022/07/16 06:52:23;;;;;;;6.43;2.40;;;;;;;;;;5037902;28;20981;-81
2022/07/16 06:54:50;;;;;;;4.13;2.43;;;;;;;;;;5040321;28;20659;-81
2022/07/16 06:57:18;;;;;;;9.73;3.00;;;;;;;;;;5040058;28;20203;-81
2022/07/16 06:59:45;;;;;;;7.00;2.53;;;;;;;;;;5038699;28;20214;-81
2022/07/16 07:02:13;;;;;;;5.63;2.57;;;;;;;;;;5035507;28;20195;-81
2022/07/16 07:04:44;;;;;;;4.53;2.53;;;;;;;;;;5039924;28;20284;-81
2022/07/16 07:07:11;;;;;;;8.40;2.60;;;;;;;;;;5040416;28;20918;-81
2022/07/16 07:09:40;;;;;;;5.63;2.60;;;;;;;;;;5040832;28;20238;-81
2022/07/16 07:12:13;;;;;;;9.33;2.63;;;;;;;;;;5038023;28;20291;-81
2022/07/16 07:14:40;;;;;;;6.63;3.30;;;;;;;;;;5042140;28;20207;-81
2022/07/16 07:17:09;;;;;;;7.43;2.90;;;;;;;;;;5039365;28;20215;-81
2022/07/16 07:19:38;;;;;;;5.23;2.40;;;;;;;;;;5041248;28;20203;-81
2022/07/16 07:22:10;;;;;;;6.60;2.00;;;;;;;;;;5042144;28;20235;-82
2022/07/16 07:24:39;;;;;;;6.57;2.43;;;;;;;;;;5042319;28;20219;-81
2022/07/16 07:27:18;;;;;;;4.57;2.00;;;;;;;;;;5040451;28;20226;-83
2022/07/16 07:29:46;;;;;;;6.20;2.20;;;;;;;;;;5041175;28;20199;-82
2022/07/16 07:32:15;;;;;;;4.50;2.10;;;;;;;;;;5044134;28;20826;-81
2022/07/16 07:34:43;;;;;;;12.33;2.50;;;;;;;;;;5054396;28;20214;-81
2022/07/16 07:37:10;;;;;;;8.17;2.00;;;;;;;;;;5038186;28;20281;-82
2022/07/16 07:39:40;;;;;;;5.27;2.03;;;;;;;;;;5044620;28;20287;-81
2022/07/16 07:42:10;;;;;;;5.30;1.80;;;;;;;;;;5048528;28;20355;-82
2022/07/16 07:44:39;;;;;;;5.20;1.73;;;;;;;;;;5043828;28;20223;-81
2022/07/16 07:47:07;;;;;;;3.03;1.43;;;;;;;;;;5043828;28;20631;-80
2022/07/16 07:49:34;;;;;;;7.23;1.80;;;;;;;;;;5046244;28;20294;-80
2022/07/16 07:52:02;;;;;;;2.47;1.40;;;;;;;;;;5045931;28;20582;-80
2022/07/16 07:54:29;;;;;;;4.33;1.70;;;;;;;;;;5043795;28;20292;-80
2022/07/16 07:56:57;;;;;;;5.93;1.87;;;;;;;;;;5039395;28;20900;-81
2022/07/16 07:59:29;;;;;;;4.70;1.80;;;;;;;;;;5044998;28;20225;-80
2022/07/16 08:01:56;;;;;;;5.97;1.67;;;;;;;;;;5038758;28;20199;-80
2022/07/16 08:04:23;;;;;;;2.73;1.40;;;;;;;;;;5045856;28;20226;-80
2022/07/16 08:06:51;;;;;;;7.00;1.60;;;;;;;;;;5042287;28;20254;-79
2022/07/16 08:09:18;;;;;;;3.03;1.43;;;;;;;;;;5039593;28;20788;-81
2022/07/16 08:11:51;;;;;;;6.33;1.60;;;;;;;;;;5039868;28;20202;-79
2022/07/16 08:14:21;;;;;;;9.97;2.27;;;;;;;;;;5040544;28;20227;-79
2022/07/16 08:16:50;;;;;;;4.93;2.60;;;;;;;;;;5042348;28;20250;-80
2022/07/16 08:19:20;;;;;;;4.10;2.10;;;;;;;;;;5051410;28;20187;-80
2022/07/16 08:21:47;;;;;;;5.80;2.20;;;;;;;;;;5064272;28;20199;-80
2022/07/16 08:27:00;;;;;;;6.03;1.90;;;;;;;;;;5036566;28;20225;-79
2022/07/16 08:29:31;;;;;;;9.70;2.30;;;;;;;;;;5038761;28;20214;-79
2022/07/16 08:32:01;;;;;;;7.97;2.23;;;;;;;;;;5041829;28;20291;-80
2022/07/16 08:34:28;;;;;;;6.20;2.17;;;;;;;;;;5048325;28;20590;-80
2022/07/16 08:36:55;;;;;;;4.87;2.03;;;;;;;;;;5040812;28;20312;-80
2022/07/16 08:39:22;;;;;;;4.70;2.07;;;;;;;;;;5038725;28;20236;-80
2022/07/16 08:41:50;;;;;;;6.20;2.60;;;;;;;;;;5042203;28;20217;-80
2022/07/16 08:44:17;;;;;;;7.63;2.37;;;;;;;;;;5036831;28;20233;-80
2022/07/16 08:46:44;;;;;;;4.37;2.07;;;;;;;;;;5040225;28;20213;-81
2022/07/16 08:49:13;;;;;;;6.77;2.13;;;;;;;;;;5042591;28;20211;-79
2022/07/16 08:51:41;;;;;;;6.50;2.80;;;;;;;;;;5042623;28;21412;-80
2022/07/16 08:54:12;;;;;;;6.47;2.63;;;;;;;;;;5034190;28;20235;-81
2022/07/16 08:56:39;;;;;;;5.70;2.60;;;;;;;;;;5041823;28;20224;-79
2022/07/16 08:59:06;;;;;;;5.53;2.33;;;;;;;;;;5046501;28;20203;-80
2022/07/16 09:01:34;;;;;;;5.67;2.63;;;;;;;;;;5044386;28;20344;-79
2022/07/16 09:04:04;;;;;;;8.00;2.60;;;;;;;;;;5039500;28;20249;-79
2022/07/16 09:06:33;;;;;;;5.13;2.37;;;;;;;;;;5041447;28;20209;-80
2022/07/16 09:09:01;;;;;;;9.83;2.60;;;;;;;;;;5042143;28;20227;-80
2022/07/16 09:11:31;;;;;;;5.70;2.53;;;;;;;;;;5040585;28;20223;-80
2022/07/16 09:14:02;;;;;;;7.40;2.53;;;;;;;;;;5040950;28;20219;-79
2022/07/16 09:16:31;;;;;;;9.93;2.90;;;;;;;;;;5041165;28;20243;-80
2022/07/16 09:19:08;;;;;;;6.07;2.63;;;;;;;;;;5042991;28;20236;-80
2022/07/16 09:21:37;;;;;;;7.13;2.40;;;;;;;;;;5042183;28;20210;-81
2022/07/16 09:24:06;;;;;;;9.83;2.93;;;;;;;;;;5038088;28;20232;-80
2022/07/16 09:26:33;;;;;;;8.70;2.63;;;;;;;;;;5048720;28;20203;-80
2022/07/16 09:29:03;;;;;;;10.00;2.90;;;;;;;;;;5044042;28;20278;-80
2022/07/16 09:31:33;;;;;;;4.80;2.60;;;;;;;;;;5039366;28;20198;-80
2022/07/16 09:34:04;;;;;;;4.53;2.20;;;;;;;;;;5041193;28;20297;-81
2022/07/16 09:36:31;;;;;;;4.53;2.43;;;;;;;;;;5045176;28;20230;-80
2022/07/16 09:39:00;;;;;;;5.13;2.50;;;;;;;;;;5041670;28;20201;-80
2022/07/16 09:41:30;;;;;;;4.53;2.47;;;;;;;;;;5039768;28;20204;-80
2022/07/16 09:43:58;;;;;;;4.53;2.47;;;;;;;;;;5041895;28;20306;-80
2022/07/16 09:46:27;;;;;;;8.00;3.00;;;;;;;;;;5039076;28;20287;-80
2022/07/16 09:48:54;;;;;;;5.90;2.53;;;;;;;;;;5040026;28;20281;-80
2022/07/16 09:51:22;;;;;;;7.93;2.10;;;;;;;;;;5039591;28;20222;-80
2022/07/16 09:53:50;;;;;;;5.90;2.57;;;;;;;;;;5038789;28;20255;-80
2022/07/16 09:56:20;;;;;;;8.37;2.60;;;;;;;;;;5037069;28;20304;-81
2022/07/16 09:58:49;;;;;;;4.37;2.30;;;;;;;;;;5040245;28;20581;-82
2022/07/16 10:01:17;;;;;;;2.57;2.17;;;;;;;;;;5041368;28;20204;-81
2022/07/16 10:03:44;;;;;;;6.47;2.50;;;;;;;;;;5078733;22;20227;-80
2022/07/16 10:06:12;;;;;;;7.30;2.47;;;;;;;;;;5041849;28;20200;-80
2022/07/16 10:08:40;;;;;;;5.43;2.40;;;;;;;;;;5042500;28;20254;-80
2022/07/16 10:11:07;;;;;;;6.90;2.40;;;;;;;;;;5040423;28;20209;-80
2022/07/16 10:13:37;;;;;;;7.67;2.83;;;;;;;;;;5047297;28;20989;-80
2022/07/16 10:16:05;;;;;;;6.97;2.50;;;;;;;;;;5044703;28;20306;-81
2022/07/16 10:18:36;;;;;;;9.17;3.30;;;;;;;;;;5043549;28;20260;-81
2022/07/16 10:21:11;;;;;;;6.10;2.80;;;;;;;;;;5050636;28;20199;-80
2022/07/16 10:23:39;;;;;;;3.30;2.37;;;;;;;;;;5041332;28;20272;-80
2022/07/16 10:26:08;;;;;;;4.10;2.40;;;;;;;;;;5043769;28;20203;-81
2022/07/16 10:31:41;;;;;;;5.67;2.57;;;;;;;;;;5043694;28;20231;-81
2022/07/16 10:34:39;;;;;;;3.73;2.30;;;;;;;;;;5043464;28;20300;-80
2022/07/16 10:37:11;;;;;;;6.23;2.40;;;;;;;;;;5036567;28;20702;-80
2022/07/16 10:40:00;;;;;;;5.33;2.40;;;;;;;;;;5041836;28;20568;-80
2022/07/16 10:42:28;;;;;;;5.73;2.63;;;;;;;;;;5043668;28;20687;-80
2022/07/16 10:44:55;;;;;;;7.37;2.57;;;;;;;;;;5043114;28;20239;-79
2022/07/16 10:47:42;;;;;;;3.23;2.17;;;;;;;;;;5045505;28;20207;-79
2022/07/16 10:50:19;;;;;;;4.87;2.53;;;;;;;;;;5046018;28;20207;-80
2022/07/16 10:53:06;;;;;;;9.33;2.90;;;;;;;;;;5049145;28;20242;-80
2022/07/16 10:55:53;;;;;;;3.70;2.63;;;;;;;;;;5051064;28;20207;-80
2022/07/16 10:58:26;;;;;;;5.70;2.70;;;;;;;;;;5048845;28;20216;-80
2022/07/16 11:00:54;;;;;;;3.77;2.60;;;;;;;;;;5049983;28;20718;-82
2022/07/16 11:03:23;;;;;;;4.63;2.20;;;;;;;;;;5050731;28;20266;-81
2022/07/16 11:05:50;;;;;;;4.33;2.33;;;;;;;;;;5052522;28;20210;-81
2022/07/16 11:08:17;;;;;;;8.77;2.40;;;;;;;;;;5051632;28;20247;-81
2022/07/16 11:10:44;;;;;;;6.40;2.07;;;;;;;;;;5056376;28;20710;-81
2022/07/16 11:13:13;;;;;;;4.10;1.80;;;;;;;;;;5047982;28;20231;-80
2022/07/16 11:15:40;;;;;;;3.40;1.50;;;;;;;;;;5048063;28;20294;-81
2022/07/16 11:18:15;;;;;;;2.80;1.27;;;;;;;;;;5049690;28;20214;-81
2022/07/16 11:20:44;;;;;;;1.63;1.20;;;;;;;;;;5051017;28;20211;-81
2022/07/16 11:23:12;;;;;;;5.13;1.50;;;;;;;;;;5048956;28;20226;-79
2022/07/16 11:25:54;;;;;;;1.30;1.13;;;;;;;;;;5050269;28;20612;-81
2022/07/16 11:28:22;;;;;;;2.70;1.27;;;;;;;;;;5051070;28;20711;-81
2022/07/16 11:31:03;;;;;;;2.13;1.27;;;;;;;;;;5051431;28;20205;-81
2022/07/16 11:33:34;;;;;;;5.10;1.30;;;;;;;;;;5051896;28;20232;-80
2022/07/16 11:36:08;;;;;;;2.57;1.30;;;;;;;;;;5051730;28;20268;-81
2022/07/16 11:38:35;;;;;;;3.53;1.40;;;;;;;;;;5053528;28;20279;-81
2022/07/16 11:41:03;;;;;;;3.93;1.57;;;;;;;;;;5048524;28;20219;-80
2022/07/16 11:43:30;;;;;;;1.30;1.20;;;;;;;;;;5050867;28;20253;-81
2022/07/16 11:45:57;;;;;;;1.67;1.10;;;;;;;;;;5040709;28;20675;-80
2022/07/16 11:48:24;;;;;;;3.47;1.30;;;;;;;;;;5053999;28;20309;-81
2022/07/16 11:50:54;;;;;;;2.30;1.10;;;;;;;;;;5050721;28;20276;-81
2022/07/16 11:53:33;;;;;;;5.93;1.70;;;;;;;;;;5045000;28;20223;-80
2022/07/16 11:56:01;;;;;;;2.60;1.00;;;;;;;;;;5051737;28;20233;-81
2022/07/16 11:58:28;;;;;;;2.57;1.20;;;;;;;;;;5055906;28;20203;-81
2022/07/16 12:00:55;;;;;;;1.47;1.00;;;;;;;;;;5057761;28;20544;-81
2022/07/16 12:03:23;;;;;;;2.03;1.07;;;;;;;;;;5050222;28;20314;-81
2022/07/16 12:06:00;;;;;;;3.10;1.20;;;;;;;;;;5049229;28;20205;-80
2022/07/16 12:08:28;;;;;;;2.53;0.80;;;;;;;;;;5050027;28;20225;-81
2022/07/16 12:11:00;;;;;;;5.40;0.90;;;;;;;;;;5050227;28;20206;-80
2022/07/16 12:13:27;;;;;;;6.07;1.00;;;;;;;;;;5045033;28;20255;-80
2022/07/16 12:15:55;;;;;;;5.17;1.00;;;;;;;;;;5046870;28;20634;-80
2022/07/16 12:18:23;;;;;;;5.33;0.90;;;;;;;;;;5044892;28;20203;-80
2022/07/16 12:20:50;;;;;;;1.60;0.73;;;;;;;;;;5047079;28;20238;-80
2022/07/16 12:23:32;;;;;;;3.23;1.50;;;;;;;;;;5046560;28;20361;-80
2022/07/16 12:26:03;;;;;;;10.97;1.20;;;;;;;;;;5044213;28;20210;-81
2022/07/16 12:28:30;;;;;;;22.03;1.50;;;;;;;;;;5045753;28;20238;-81
2022/07/16 12:30:58;;;;;;;48.83;2.67;;;;;;;;;;5046733;28;20253;-81
2022/07/16 12:33:27;;;;;;;32.77;1.60;;;;;;;;;;5047650;28;20708;-81
2022/07/16 12:35:55;;;;;;;5.80;1.00;;;;;;;;;;5046217;28;20204;-80
2022/07/16 12:38:49;;;;;;;13.20;1.53;;;;;;;;;;5051052;28;20726;-80
2022/07/16 12:41:18;;;;;;;3.13;1.10;;;;;;;;;;5048504;28;20298;-80
2022/07/16 12:43:48;;;;;;;5.50;1.43;;;;;;;;;;5044148;28;20272;-80
2022/07/16 12:46:19;;;;;;;12.20;1.33;;;;;;;;;;5048911;28;20216;-82
2022/07/16 12:48:47;;;;;;;12.43;1.43;;;;;;;;;;5043669;28;20258;-81
2022/07/16 12:51:15;;;;;;;7.50;1.17;;;;;;;;;;5045086;28;20308;-80
2022/07/16 12:53:43;;;;;;;30.53;1.80;;;;;;;;;;5049060;28;20393;-81
2022/07/16 12:58:57;;;;;;;5.27;1.10;;;;;;;;;;5043769;28;20246;-81
2022/07/16 13:01:25;;;;;;;11.10;1.27;;;;;;;;;;5043331;28;20214;-81
2022/07/16 13:03:53;;;;;;;3.17;0.90;;;;;;;;;;5041478;28;20231;-80
2022/07/16 13:06:20;;;;;;;4.00;0.80;;;;;;;;;;5047560;28;20283;-81
2022/07/16 13:08:48;;;;;;;5.60;0.80;;;;;;;;;;5046870;28;20233;-81
2022/07/16 13:11:17;;;;;;;6.63;0.80;;;;;;;;;;5044330;28;20233;-79
2022/07/16 13:13:45;;;;;;;5.33;1.00;;;;;;;;;;5047319;28;20234;-81
2022/07/16 13:16:14;;;;;;;3.03;1.00;;;;;;;;;;5049014;28;20238;-81
2022/07/16 13:18:41;;;;;;;1.23;0.77;;;;;;;;;;5048640;28;20203;-81
2022/07/16 13:21:08;;;;;;;2.30;0.80;;;;;;;;;;5049735;28;20295;-81
2022/07/16 13:23:35;;;;;;;0.93;0.70;;;;;;;;;;5051401;28;20316;-81
2022/07/16 13:26:03;;;;;;;1.67;0.83;;;;;;;;;;5047897;28;20242;-81
2022/07/16 13:28:30;;;;;;;5.43;0.90;;;;;;;;;;5045334;28;20692;-82
2022/07/16 13:30:58;;;;;;;5.60;0.90;;;;;;;;;;5046691;28;20293;-81
2022/07/16 13:33:27;;;;;;;5.60;0.97;;;;;;;;;;5049235;28;20232;-82
2022/07/16 13:35:55;;;;;;;5.80;0.90;;;;;;;;;;5046961;28;20239;-81
2022/07/16 13:38:22;;;;;;;6.60;1.20;;;;;;;;;;5046701;28;20757;-81
2022/07/16 13:40:50;;;;;;;2.43;1.00;;;;;;;;;;5050062;28;20216;-81
2022/07/16 13:43:17;;;;;;;1.57;0.70;;;;;;;;;;5051536;28;20233;-80
2022/07/16 13:45:45;;;;;;;2.30;0.90;;;;;;;;;;5043314;28;20208;-80
2022/07/16 13:48:14;;;;;;;4.70;0.80;;;;;;;;;;5047426;28;20222;-81
2022/07/16 13:50:43;;;;;;;3.57;1.10;;;;;;;;;;5049446;28;20233;-80
2022/07/16 13:53:11;;;;;;;4.10;0.83;;;;;;;;;;5045680;28;20243;-80
2022/07/16 13:55:38;;;;;;;21.50;1.63;;;;;;;;;;5050664;28;20204;-81
2022/07/16 13:58:21;;;;;;;5.97;1.30;;;;;;;;;;5047310;28;20282;-81
2022/07/16 14:00:49;;;;;;;12.30;1.30;;;;;;;;;;5043104;28;20210;-80
2022/07/16 14:03:17;;;;;;;44.07;3.93;;;;;;;;;;5045577;28;20326;-80
2022/07/16 14:05:46;;;;;;;29.70;2.67;;;;;;;;;;5046764;28;20203;-81
2022/07/16 14:08:14;;;;;;;36.27;2.27;;;;;;;;;;5047845;28;20212;-81
2022/07/16 14:10:42;;;;;;;28.77;1.70;;;;;;;;;;5046212;28;20219;-80
2022/07/16 14:13:09;;;;;;;10.30;1.30;;;;;;;;;;5044180;28;20286;-81
2022/07/16 14:15:37;;;;;;;1.20;0.70;;;;;;;;;;5046592;28;20246;-81
2022/07/16 14:18:05;;;;;;;3.33;0.90;;;;;;;;;;5041711;28;20232;-81
2022/07/16 14:20:33;;;;;;;3.43;1.10;;;;;;;;;;5045257;28;20192;-79
2022/07/16 14:23:02;;;;;;;6.30;1.20;;;;;;;;;;5060783;28;20228;-79
2022/07/16 14:25:29;;;;;;;5.60;0.90;;;;;;;;;;5059839;28;20196;-80
2022/07/16 14:27:57;;;;;;;1.93;0.87;;;;;;;;;;5050909;28;21899;-80
2022/07/16 14:30:24;;;;;;;7.73;1.60;;;;;;;;;;5052011;28;20235;-80
2022/07/16 14:32:51;;;;;;;6.37;1.10;;;;;;;;;;5050868;28;20220;-80
2022/07/16 14:35:19;;;;;;;5.37;0.83;;;;;;;;;;5052508;28;20211;-80
2022/07/16 14:37:47;;;;;;;3.07;1.00;;;;;;;;;;5050638;28;20269;-79
2022/07/16 14:40:16;;;;;;;5.17;1.30;;;;;;;;;;5051145;28;20674;-80
2022/07/16 14:42:45;;;;;;;11.70;1.07;;;;;;;;;;5048226;28;20255;-80
2022/07/16 14:45:13;;;;;;;7.20;0.90;;;;;;;;;;5048949;28;20204;-80
2022/07/16 14:47:41;;;;;;;9.97;1.20;;;;;;;;;;5051157;28;20234;-81
2022/07/16 14:50:09;;;;;;;17.80;1.37;;;;;;;;;;5050637;28;20283;-80
2022/07/16 14:52:36;;;;;;;4.47;1.30;;;;;;;;;;5049606;28;20210;-80
2022/07/16 14:55:04;;;;;;;3.37;0.97;;;;;;;;;;5054072;28;20237;-81
2022/07/16 14:57:32;;;;;;;2.23;0.90;;;;;;;;;;5052640;28;20232;-81
2022/07/16 14:59:59;;;;;;;29.67;1.77;;;;;;;;;;5060877;28;20236;-79
2022/07/16 15:02:27;;;;;;;20.00;1.30;;;;;;;;;;5054747;28;20209;-79
2022/07/16 15:04:54;;;;;;;23.57;1.60;;;;;;;;;;5058739;28;20230;-80